Aérodrome :
LOGIN :

S'inscrire | Disclaimer

   EN    FR    IT 

 










Légende :    VFR   VFR Marginal   IFR   IFR Intensif   IFR Très Intensif
Visi : 
Plafond : 
>= 8 km
>= 3000ft
5 à 8 km
1000 à 3000 ft
1500m à 5 km
500 à 1000 ft
800 à 1500m
200 à 500 ft
< 800m
< 200 ft
Symboles :   Orages  Brouillard  Fortes neiges  Fortes précipitations  Vent > 20 kt
SIGMETs :   Divers  Orages  Givrage  Turbulence  Onde Orograph.  Cendres Volcan.







- Altitude de l'aérodrome : 499 ft
- Code IATA : TLS
- Voir les cartes d'approche


LFBO - Toulouse / Blagnac

DERNIER METAR :
  • 260400Z AUTO 31008KT 9999 BKN008 BKN013 BKN023 10/09 Q1008 NOSIG

METARs EXPIRÉS :
  • 260330Z AUTO 29008KT 9999 SCT007 BKN013 BKN019 10/09 Q1008 NOSIG
  • 260300Z AUTO 30007KT 9999 BKN009 BKN014 OVC022 10/09 Q1008 BECMG BKN010
  • 260230Z AUTO 29006KT 9999 BKN012 OVC021 10/09 Q1009 NOSIG
  • 260200Z AUTO 29006KT 9999 BKN009 BKN013 BKN018 11/09 Q1008 BECMG BKN010
  • 260130Z AUTO 26005KT 230V290 9999 SCT010 BKN021 BKN052 10/09 Q1008 BECMG BKN010

TAF AMD TAF LFBO
Valide du 26 à 03h jusqu'au 27 à 06h UTC


260324Z 2603/2706 29008KT 9999 BKN012 OVC025
TEMPO 2603/2608 BKN008 OVC020
BECMG 2608/2610 BKN025
BECMG 2611/2613 SCT030TCU BKN080
BECMG 2618/2620 SCT040
ATIS : +33 5 62 74 66 36
Pas de NOTAMs connus pour ce terrain.



MET'MAP, la Météo Aéronautique d'un coup d'oeil ! - Copyright ORBIFLY Décembre 2007 - Disclaimer

ORBIFLY MET'MAP TEAM :

Programmation & Développement : Alexandra Zaïnal
Conception & Développement : Baudouin d'Aumeries
Co-Programmation & Développement : Marc-Olivier Méhu
Soutien technique & logistique : Manuel Goepfert

Contact : metmap@orbifly.com




SOURCES & CREDITS :

   NOAA